Time;durP1;ratioP1;P1;durP2;ratioP2;P2;SDS_P1;SDS_P2;PMS_P1;PMS_P2;Temp;Humidity;BMP_temperature;BMP_pressure;BME280_temperature;BME280_humidity;BME280_pressure;Samples;Min_cycle;Max_cycle;Signal;HPM_P1;HPM_P2
2024/01/02 00:01:44;;;;;;;3.28;2.15;;;;;;;9.17;66.46;94715.91;5027625;28;20029;-77
2024/01/02 00:04:09;;;;;;;2.53;1.92;;;;;;;9.18;66.55;94719.47;5026926;28;20043;-76
2024/01/02 00:06:35;;;;;;;3.60;1.98;;;;;;;9.13;66.29;94711.75;5026978;28;20029;-78
2024/01/02 00:09:00;;;;;;;3.08;2.13;;;;;;;9.12;66.26;94712.94;5027609;28;20484;-78
2024/01/02 00:11:25;;;;;;;2.95;2.30;;;;;;;9.17;65.94;94707.69;5025938;28;20036;-78
2024/01/02 00:13:51;;;;;;;3.20;2.17;;;;;;;9.14;65.96;94710.53;5027424;28;20036;-79
2024/01/02 00:16:17;;;;;;;2.90;2.17;;;;;;;9.13;66.12;94714.50;5025617;28;20045;-77
2024/01/02 00:18:42;;;;;;;3.50;2.55;;;;;;;9.08;65.99;94702.06;5026000;28;20018;-77
2024/01/02 00:21:08;;;;;;;3.10;2.17;;;;;;;9.09;65.89;94708.31;5026548;28;20028;-77
2024/01/02 00:23:33;;;;;;;3.38;2.20;;;;;;;9.09;65.88;94716.56;5026985;28;20061;-77
2024/01/02 00:25:59;;;;;;;2.58;2.00;;;;;;;9.08;65.71;94715.78;5027408;28;20029;-78
2024/01/02 00:28:24;;;;;;;3.03;2.42;;;;;;;9.08;65.81;94715.03;5026327;28;20412;-77
2024/01/02 00:30:49;;;;;;;2.35;1.80;;;;;;;9.09;65.77;94719.28;5027217;28;20061;-77
2024/01/02 00:33:15;;;;;;;3.25;2.38;;;;;;;9.10;65.67;94718.84;5026161;28;20411;-76
2024/01/02 00:35:41;;;;;;;2.85;2.33;;;;;;;9.14;65.55;94705.84;5025851;28;20036;-78
2024/01/02 00:38:08;;;;;;;3.75;2.45;;;;;;;9.10;65.77;94709.88;5025682;28;20030;-77
2024/01/02 00:40:34;;;;;;;3.28;2.08;;;;;;;9.08;65.86;94713.03;5027235;28;20087;-77
2024/01/02 00:42:59;;;;;;;3.13;2.20;;;;;;;9.10;65.69;94715.34;5026385;28;20029;-77
2024/01/02 00:45:24;;;;;;;4.63;2.47;;;;;;;9.12;65.67;94711.00;5026278;28;20029;-77
2024/01/02 00:47:51;;;;;;;3.20;2.58;;;;;;;9.11;65.79;94711.41;5027274;28;20456;-77
2024/01/02 00:50:17;;;;;;;4.13;2.30;;;;;;;9.12;65.60;94710.19;5025938;28;20084;-78
2024/01/02 00:52:43;;;;;;;2.38;1.90;;;;;;;9.10;65.51;94709.88;5027295;28;20447;-78
2024/01/02 00:55:09;;;;;;;3.08;1.95;;;;;;;9.08;65.54;94704.06;5025318;28;20021;-76
2024/01/02 00:57:34;;;;;;;3.38;2.33;;;;;;;9.12;65.51;94705.50;5028399;28;20049;-77
2024/01/02 00:59:59;;;;;;;3.60;2.33;;;;;;;9.10;65.35;94701.63;5030100;28;20443;-78
2024/01/02 01:02:25;;;;;;;2.53;1.92;;;;;;;9.20;64.88;94703.31;5030588;28;20084;-78
2024/01/02 01:04:50;;;;;;;2.85;2.08;;;;;;;9.17;64.83;94698.69;5030484;28;20506;-76
2024/01/02 01:07:16;;;;;;;3.80;2.67;;;;;;;9.10;64.75;94693.41;5029050;28;20531;-78
2024/01/02 01:09:41;;;;;;;3.08;2.10;;;;;;;9.11;64.90;94694.94;5030802;28;20030;-77
2024/01/02 01:12:07;;;;;;;3.25;2.20;;;;;;;9.19;64.85;94702.56;5029209;28;20209;-77
2024/01/02 01:14:33;;;;;;;3.45;2.40;;;;;;;9.17;64.91;94687.72;5030429;28;20111;-77
2024/01/02 01:16:59;;;;;;;3.08;2.13;;;;;;;9.15;64.98;94696.41;5028820;28;20033;-77
2024/01/02 01:19:25;;;;;;;22.38;12.93;;;;;;;9.11;64.70;94695.72;5029019;28;20448;-77
2024/01/02 01:21:51;;;;;;;9.95;5.60;;;;;;;9.12;64.68;94704.72;5030070;28;20026;-78
2024/01/02 01:24:17;;;;;;;3.38;2.35;;;;;;;9.17;64.68;94695.94;5029650;28;20494;-77
2024/01/02 01:26:42;;;;;;;3.58;1.92;;;;;;;9.14;64.61;94694.09;5030416;28;20478;-77
2024/01/02 01:29:08;;;;;;;2.83;2.08;;;;;;;9.12;64.60;94696.47;5027413;28;20091;-77
2024/01/02 01:31:33;;;;;;;2.50;1.85;;;;;;;9.14;64.52;94700.34;5030348;28;20400;-77
2024/01/02 01:33:59;;;;;;;2.97;1.70;;;;;;;9.14;64.50;94694.84;5028641;28;20017;-78
2024/01/02 01:36:24;;;;;;;3.25;2.13;;;;;;;9.12;64.24;94688.25;5029032;28;20104;-77
2024/01/02 01:38:49;;;;;;;3.67;1.98;;;;;;;9.13;64.04;94692.56;5029077;28;20087;-77
2024/01/02 01:41:15;;;;;;;2.33;1.70;;;;;;;9.13;63.86;94687.06;5029900;28;20108;-77
2024/01/02 01:43:40;;;;;;;2.10;1.52;;;;;;;9.13;63.67;94682.34;5030020;28;20041;-77
2024/01/02 01:46:06;;;;;;;2.53;1.70;;;;;;;9.18;63.32;94683.81;5028499;28;20076;-77
2024/01/02 01:48:31;;;;;;;2.33;1.48;;;;;;;9.12;63.61;94680.03;5029981;28;20411;-77
2024/01/02 01:50:57;;;;;;;3.70;1.67;;;;;;;9.18;63.22;94689.28;5028065;28;20033;-77
2024/01/02 01:53:23;;;;;;;1.60;1.10;;;;;;;9.20;62.93;94686.88;5028632;28;20438;-77
2024/01/02 01:55:49;;;;;;;2.15;1.30;;;;;;;9.18;62.78;94695.53;5027115;28;20102;-76
2024/01/02 01:58:16;;;;;;;1.80;1.20;;;;;;;9.21;62.82;94694.66;5029774;28;20468;-77
2024/01/02 02:00:42;;;;;;;1.70;1.13;;;;;;;9.20;62.71;94687.63;5029465;28;20105;-77
2024/01/02 02:03:09;;;;;;;1.98;1.20;;;;;;;9.17;63.07;94693.97;5028726;28;20097;-78
2024/01/02 02:05:35;;;;;;;2.35;1.23;;;;;;;9.18;63.12;94690.06;5028622;28;20052;-77
2024/01/02 02:08:00;;;;;;;3.53;1.85;;;;;;;9.15;63.43;94690.91;5027521;28;20055;-77
2024/01/02 02:10:26;;;;;;;3.03;2.10;;;;;;;9.14;63.89;94688.59;5029849;28;20026;-77
2024/01/02 02:12:51;;;;;;;4.18;2.17;;;;;;;9.11;64.16;94692.19;5027648;28;20025;-77
2024/01/02 02:15:17;;;;;;;3.63;2.22;;;;;;;9.04;64.38;94691.19;5028026;28;20096;-78
2024/01/02 02:17:42;;;;;;;3.30;2.38;;;;;;;8.97;65.02;94698.84;5028552;28;20095;-77
2024/01/02 02:20:08;;;;;;;5.40;2.60;;;;;;;8.96;65.46;94689.09;5028575;28;20087;-78
2024/01/02 02:22:38;;;;;;;5.18;2.30;;;;;;;8.94;65.69;94694.97;5029281;28;20083;-77
2024/01/02 02:25:05;;;;;;;2.50;2.10;;;;;;;8.93;65.76;94692.69;5027535;28;20021;-77
2024/01/02 02:27:32;;;;;;;2.95;1.88;;;;;;;8.98;65.42;94686.69;5029193;28;20029;-78
2024/01/02 02:29:57;;;;;;;4.40;1.90;;;;;;;8.90;65.82;94679.84;5026100;28;20830;-76
2024/01/02 02:32:22;;;;;;;3.60;1.92;;;;;;;8.89;66.01;94689.25;5029115;28;20035;-77
2024/01/02 02:34:48;;;;;;;2.97;2.08;;;;;;;8.82;66.10;94678.47;5028280;28;20021;-77
2024/01/02 02:37:13;;;;;;;3.05;2.03;;;;;;;8.87;65.97;94681.47;5028876;28;20021;-76
2024/01/02 02:39:39;;;;;;;2.67;2.20;;;;;;;8.91;66.00;94673.16;5027396;28;20030;-78
2024/01/02 02:42:04;;;;;;;4.07;2.35;;;;;;;8.86;66.56;94673.69;5027820;28;20448;-76
2024/01/02 02:44:31;;;;;;;4.20;2.10;;;;;;;8.87;66.31;94676.00;5028983;28;20014;-77
2024/01/02 02:46:57;;;;;;;3.55;1.92;;;;;;;8.82;66.35;94673.00;5027123;28;20460;-77
2024/01/02 02:49:22;;;;;;;3.05;1.90;;;;;;;8.82;66.26;94676.50;5028890;28;20075;-77
2024/01/02 02:51:47;;;;;;;2.15;1.50;;;;;;;8.84;66.05;94679.59;5027720;28;20080;-77
2024/01/02 02:54:13;;;;;;;2.55;1.60;;;;;;;8.80;66.19;94675.41;5028431;28;20036;-77
2024/01/02 02:56:39;;;;;;;2.17;1.58;;;;;;;8.73;66.69;94679.88;5028278;28;20097;-77
2024/01/02 02:59:05;;;;;;;2.35;1.63;;;;;;;8.77;66.65;94677.81;5027648;28;20031;-77
2024/01/02 03:01:31;;;;;;;2.20;1.70;;;;;;;8.73;66.99;94685.38;5028653;28;20163;-77
2024/01/02 03:03:56;;;;;;;3.08;1.83;;;;;;;8.71;67.08;94674.03;5026847;28;20116;-77
2024/01/02 03:06:22;;;;;;;2.92;1.60;;;;;;;8.71;67.10;94678.75;5028848;28;20021;-76
2024/01/02 03:08:47;;;;;;;3.03;1.70;;;;;;;8.67;67.22;94678.88;5025601;28;20482;-77
2024/01/02 03:11:13;;;;;;;3.15;2.10;;;;;;;8.76;67.06;94678.22;5028107;28;20029;-77
2024/01/02 03:13:38;;;;;;;3.00;1.88;;;;;;;8.57;67.14;94646.25;5027264;28;20598;-77
2024/01/02 03:16:04;;;;;;;2.35;1.38;;;;;;;8.75;66.92;94654.78;5027606;28;20049;-77
2024/01/02 03:18:29;;;;;;;3.50;2.25;;;;;;;8.66;67.09;94649.94;5026652;28;20530;-77
2024/01/02 03:20:55;;;;;;;3.25;2.17;;;;;;;8.73;66.99;94668.16;5024699;28;20045;-77
2024/01/02 03:23:20;;;;;;;2.53;1.88;;;;;;;8.69;67.33;94670.19;5028301;28;20057;-76
2024/01/02 03:25:45;;;;;;;2.40;2.03;;;;;;;8.64;67.42;94662.50;5026699;28;20029;-77
2024/01/02 03:28:11;;;;;;;2.53;1.88;;;;;;;8.64;67.49;94667.97;5028226;28;20033;-77
2024/01/02 03:30:40;;;;;;;3.17;1.77;;;;;;;8.68;67.25;94669.44;5026718;28;20075;-77
2024/01/02 03:33:05;;;;;;;2.33;1.80;;;;;;;8.65;67.46;94653.84;5027856;28;20027;-77
2024/01/02 03:35:31;;;;;;;3.58;1.90;;;;;;;8.71;67.20;94665.06;5027326;28;20033;-77
2024/01/02 03:37:56;;;;;;;3.70;1.92;;;;;;;8.60;67.29;94650.84;5026964;28;20053;-77
2024/01/02 03:40:22;;;;;;;2.53;1.90;;;;;;;8.60;67.55;94670.03;5027892;28;20026;-77
2024/01/02 03:42:47;;;;;;;2.38;1.80;;;;;;;8.47;67.97;94662.53;5026607;28;20018;-78
2024/01/02 03:45:12;;;;;;;2.60;1.90;;;;;;;8.50;67.94;94671.88;5027528;28;20487;-77
2024/01/02 03:47:38;;;;;;;3.70;2.08;;;;;;;8.46;67.93;94668.44;5026708;28;20028;-78
2024/01/02 03:50:04;;;;;;;3.78;2.13;;;;;;;8.46;68.12;94668.44;5027544;28;20060;-78
2024/01/02 03:52:31;;;;;;;4.35;2.13;;;;;;;8.40;68.12;94670.16;5026777;28;20029;-78
2024/01/02 03:54:57;;;;;;;3.20;2.00;;;;;;;8.48;67.57;94668.75;5027156;28;20025;-78
2024/01/02 03:57:22;;;;;;;2.50;1.90;;;;;;;8.44;67.34;94676.31;5027520;28;20021;-77
2024/01/02 03:59:48;;;;;;;3.40;2.10;;;;;;;8.35;67.51;94671.41;5026478;28;20033;-76
2024/01/02 04:02:13;;;;;;;3.22;1.77;;;;;;;8.41;67.29;94671.69;5027327;28;20464;-76
2024/01/02 04:04:39;;;;;;;4.38;2.22;;;;;;;8.37;67.16;94662.78;5025049;28;20018;-78
2024/01/02 04:07:04;;;;;;;3.05;2.15;;;;;;;8.32;67.53;94671.50;5027392;28;20478;-77
2024/01/02 04:09:29;;;;;;;3.17;2.00;;;;;;;8.30;67.24;94674.66;5026034;28;20474;-77
2024/01/02 04:11:55;;;;;;;3.10;2.30;;;;;;;8.28;67.30;94668.84;5027388;28;20068;-76
2024/01/02 04:14:20;;;;;;;4.00;1.83;;;;;;;8.27;67.52;94672.03;5026400;28;20026;-77
2024/01/02 04:16:45;;;;;;;4.20;2.25;;;;;;;8.30;67.27;94671.16;5025485;28;20025;-77
2024/01/02 04:19:11;;;;;;;5.38;2.95;;;;;;;8.28;67.13;94679.03;5027341;28;20108;-77
2024/01/02 04:21:36;;;;;;;4.65;3.10;;;;;;;8.29;66.94;94688.78;5025871;28;20506;-77
2024/01/02 04:24:02;;;;;;;4.55;2.75;;;;;;;8.22;67.24;94676.03;5027073;28;20053;-77
2024/01/02 04:26:27;;;;;;;3.65;2.58;;;;;;;8.19;67.53;94683.13;5025805;28;20026;-76
2024/01/02 04:28:52;;;;;;;3.28;2.30;;;;;;;8.19;67.29;94679.63;5026089;28;20057;-77
2024/01/02 04:31:18;;;;;;;3.38;2.30;;;;;;;8.19;67.12;94694.06;5026537;28;20476;-77
2024/01/02 04:33:43;;;;;;;3.05;2.13;;;;;;;8.17;67.35;94695.72;5031164;28;20022;-77
2024/01/02 04:36:09;;;;;;;3.65;2.13;;;;;;;8.18;67.50;94702.72;5030729;28;20482;-78
2024/01/02 04:38:35;;;;;;;3.50;2.05;;;;;;;8.18;67.29;94692.53;5030431;28;20480;-77
2024/01/02 04:41:02;;;;;;;3.53;2.47;;;;;;;8.18;66.93;94711.69;5030913;28;20511;-76
2024/01/02 04:43:28;;;;;;;4.65;2.10;;;;;;;8.23;67.07;94694.00;5029770;28;20032;-76
2024/01/02 04:45:53;;;;;;;2.78;2.10;;;;;;;8.20;66.67;94695.63;5029804;28;20021;-77
2024/01/02 04:48:19;;;;;;;4.28;2.05;;;;;;;8.28;66.68;94695.47;5029338;28;20392;-77
2024/01/02 04:50:44;;;;;;;2.97;1.80;;;;;;;8.31;66.38;94691.84;5029644;28;20020;-78
2024/01/02 04:53:09;;;;;;;2.35;1.73;;;;;;;8.20;66.50;94694.84;5028572;28;20035;-78
2024/01/02 04:55:35;;;;;;;2.70;1.60;;;;;;;8.23;66.51;94702.22;5030159;28;20030;-76
2024/01/02 04:58:02;;;;;;;2.10;1.80;;;;;;;8.27;66.60;94700.16;5030919;28;20510;-76
2024/01/02 05:00:28;;;;;;;2.83;1.60;;;;;;;8.29;66.21;94700.50;5029474;28;20112;-78
2024/01/02 05:02:53;;;;;;;2.22;1.55;;;;;;;8.29;66.27;94702.47;5030914;28;20065;-76
2024/01/02 05:05:19;;;;;;;2.00;1.35;;;;;;;8.30;66.26;94710.25;5029059;28;20583;-77
2024/01/02 05:07:44;;;;;;;2.47;1.60;;;;;;;8.21;66.41;94708.13;5030598;28;20064;-78
2024/01/02 05:10:09;;;;;;;3.28;1.50;;;;;;;8.17;66.46;94704.69;5029134;28;20034;-77
2024/01/02 05:12:35;;;;;;;1.80;1.33;;;;;;;8.21;66.32;94699.91;5030346;28;20064;-77
2024/01/02 05:15:00;;;;;;;1.77;1.30;;;;;;;8.11;66.13;94711.88;5029837;28;20068;-77
2024/01/02 05:17:26;;;;;;;1.73;1.20;;;;;;;8.05;66.25;94701.88;5029595;28;20021;-76
2024/01/02 05:19:51;;;;;;;1.77;1.25;;;;;;;7.95;66.39;94704.41;5030606;28;20040;-76
2024/01/02 05:22:17;;;;;;;3.25;1.38;;;;;;;7.91;66.58;94706.47;5029254;28;20543;-77
2024/01/02 05:24:43;;;;;;;2.60;1.33;;;;;;;7.81;66.97;94706.69;5030401;28;20505;-77
2024/01/02 05:27:08;;;;;;;1.60;1.00;;;;;;;7.84;66.58;94716.78;5028794;28;20025;-78
2024/01/02 05:29:36;;;;;;;2.05;1.27;;;;;;;7.78;66.88;94726.69;5030193;28;20075;-77
2024/01/02 05:32:02;;;;;;;2.20;1.20;;;;;;;7.81;66.60;94723.13;5029208;28;20056;-77
2024/01/02 05:34:29;;;;;;;1.63;1.10;;;;;;;7.81;66.53;94728.59;5029598;28;20040;-77
2024/01/02 05:36:55;;;;;;;1.23;0.85;;;;;;;7.80;66.38;94732.50;5030485;28;20036;-78
2024/01/02 05:39:20;;;;;;;1.67;1.20;;;;;;;7.72;66.54;94732.66;5028481;28;20033;-76
2024/01/02 05:41:45;;;;;;;2.95;1.48;;;;;;;7.63;66.97;94729.75;5028930;28;20029;-77
2024/01/02 05:44:11;;;;;;;3.63;1.33;;;;;;;7.63;67.03;94731.72;5027556;28;20426;-78
2024/01/02 05:46:36;;;;;;;1.58;1.13;;;;;;;7.58;67.09;94738.44;5030289;28;20029;-77
2024/01/02 05:49:02;;;;;;;1.27;0.85;;;;;;;7.49;67.16;94738.22;5028677;28;20104;-77
2024/01/02 05:51:27;;;;;;;1.38;1.10;;;;;;;7.48;67.26;94744.13;5029613;28;20036;-77
2024/01/02 05:53:53;;;;;;;1.85;1.13;;;;;;;7.48;67.29;94744.88;5029665;28;20588;-78
2024/01/02 05:56:18;;;;;;;1.55;0.95;;;;;;;7.42;67.35;94749.31;5028349;28;20067;-78
2024/01/02 05:58:44;;;;;;;1.17;0.80;;;;;;;7.37;67.48;94755.25;5029887;28;20030;-77
2024/01/02 06:01:09;;;;;;;2.50;1.20;;;;;;;7.41;67.02;94759.47;5026786;28;20030;-77
2024/01/02 06:03:34;;;;;;;1.65;1.20;;;;;;;7.39;67.32;94767.31;5029806;28;20025;-77
2024/01/02 06:06:00;;;;;;;2.05;1.20;;;;;;;7.34;67.30;94762.34;5028299;28;20030;-77
2024/01/02 06:08:25;;;;;;;1.67;1.00;;;;;;;7.36;67.08;94770.91;5029275;28;20559;-78
2024/01/02 06:10:51;;;;;;;1.50;1.00;;;;;;;7.33;67.06;94769.00;5029055;28;20029;-77
2024/01/02 06:13:16;;;;;;;1.17;0.82;;;;;;;7.36;66.99;94776.38;5028659;28;20377;-77
2024/01/02 06:15:41;;;;;;;2.80;1.20;;;;;;;7.38;66.86;94778.69;5029267;28;20053;-77
2024/01/02 06:18:07;;;;;;;0.93;0.80;;;;;;;7.36;66.70;94783.81;5026597;28;20459;-78
2024/01/02 06:20:32;;;;;;;1.25;0.90;;;;;;;7.36;66.15;94792.78;5029479;28;20026;-78
2024/01/02 06:22:57;;;;;;;1.05;0.85;;;;;;;7.31;66.35;94804.19;5027965;28;20022;-77
2024/01/02 06:25:23;;;;;;;2.17;1.00;;;;;;;7.31;66.35;94808.91;5029094;28;20022;-77
2024/01/02 06:27:48;;;;;;;1.27;0.95;;;;;;;7.29;66.04;94811.28;5028197;28;20152;-78
2024/01/02 06:30:14;;;;;;;1.98;1.08;;;;;;;7.26;66.26;94821.09;5028767;28;20403;-78
2024/01/02 06:32:39;;;;;;;1.65;0.98;;;;;;;7.25;66.06;94821.50;5028975;28;20024;-77
2024/01/02 06:35:05;;;;;;;1.30;0.95;;;;;;;7.19;66.24;94818.50;5027828;28;20117;-77
2024/01/02 06:37:30;;;;;;;1.73;0.90;;;;;;;7.17;66.61;94821.66;5029144;28;20029;-78
2024/01/02 06:39:56;;;;;;;0.98;0.88;;;;;;;7.25;66.19;94824.25;5026681;28;20022;-77
2024/01/02 06:42:21;;;;;;;1.02;0.70;;;;;;;7.26;65.80;94823.06;5029121;28;20055;-77
2024/01/02 06:44:47;;;;;;;1.60;0.90;;;;;;;7.21;65.90;94827.03;5026088;28;20029;-77
2024/01/02 06:47:12;;;;;;;1.73;1.02;;;;;;;7.19;66.04;94832.94;5028724;28;20052;-77
2024/01/02 06:49:38;;;;;;;0.90;0.68;;;;;;;7.16;65.66;94839.22;5028126;28;20349;-77
2024/01/02 06:52:04;;;;;;;1.25;0.80;;;;;;;7.12;66.03;94843.22;5028036;28;20026;-77
2024/01/02 06:54:29;;;;;;;1.50;0.90;;;;;;;7.04;65.91;94839.81;5028402;28;20033;-76
2024/01/02 06:56:56;;;;;;;1.48;0.93;;;;;;;6.98;66.02;94848.91;5027241;28;20113;-77
2024/01/02 06:59:21;;;;;;;1.30;0.70;;;;;;;6.93;66.38;94844.69;5028716;28;20037;-77
2024/01/02 07:01:47;;;;;;;0.88;0.65;;;;;;;6.82;66.93;94855.00;5027303;28;20142;-77
2024/01/02 07:04:12;;;;;;;1.33;0.80;;;;;;;6.76;66.75;94832.84;5028413;28;20119;-78
2024/01/02 07:06:38;;;;;;;0.60;0.50;;;;;;;6.72;67.28;94845.03;5027494;28;20431;-77
2024/01/02 07:09:03;;;;;;;1.67;1.02;;;;;;;6.67;67.56;94840.03;5028500;28;20017;-77
2024/01/02 07:11:30;;;;;;;0.80;0.80;;;;;;;6.63;67.88;94846.31;5028199;28;20510;-77
2024/01/02 07:13:56;;;;;;;1.65;1.10;;;;;;;6.58;67.91;94854.97;5026011;28;20510;-78
2024/01/02 07:16:22;;;;;;;2.70;1.00;;;;;;;6.60;67.97;94849.13;5027968;28;20049;-77
2024/01/02 07:18:47;;;;;;;1.15;0.80;;;;;;;6.58;67.87;94851.47;5027093;28;20389;-77
2024/01/02 07:21:12;;;;;;;0.75;0.50;;;;;;;6.62;67.08;94860.41;5027932;28;20049;-77
2024/01/02 07:23:38;;;;;;;1.58;0.85;;;;;;;6.62;66.93;94860.41;5026852;28;20400;-77
2024/01/02 07:26:03;;;;;;;1.45;1.00;;;;;;;6.63;66.85;94862.72;5028186;28;20112;-77
2024/01/02 07:28:28;;;;;;;2.22;1.10;;;;;;;6.59;66.60;94858.47;5027385;28;20025;-78
2024/01/02 07:30:54;;;;;;;3.83;1.60;;;;;;;6.57;66.67;94858.91;5027542;28;20384;-78
2024/01/02 07:33:19;;;;;;;1.30;0.70;;;;;;;6.55;66.67;94866.75;5027900;28;20388;-77
2024/01/02 07:35:45;;;;;;;1.08;0.70;;;;;;;6.48;66.33;94861.38;5026910;28;20496;-76
2024/01/02 07:38:10;;;;;;;1.48;0.70;;;;;;;6.43;66.69;94874.72;5028003;28;20465;-76
2024/01/02 07:40:36;;;;;;;0.73;0.60;;;;;;;6.38;67.12;94882.19;5026447;28;20439;-77
2024/01/02 07:43:02;;;;;;;1.23;0.63;;;;;;;6.35;67.47;94891.19;5027890;28;20029;-82
2024/01/02 07:45:28;;;;;;;1.30;0.50;;;;;;;6.34;67.42;94886.16;5026463;28;20026;-76
2024/01/02 07:47:54;;;;;;;3.70;1.45;;;;;;;6.30;67.64;94888.91;5027804;28;20022;-77
2024/01/02 07:50:19;;;;;;;1.83;0.95;;;;;;;6.33;67.93;94888.09;5027166;28;20484;-77
2024/01/02 07:52:47;;;;;;;2.00;0.90;;;;;;;6.36;67.82;94886.50;5026654;28;20031;-77
2024/01/02 07:55:12;;;;;;;1.75;0.93;;;;;;;6.36;67.05;94875.56;5027422;28;20045;-78
2024/01/02 07:57:38;;;;;;;1.58;0.70;;;;;;;6.39;67.01;94882.97;5008462;28;20083;-76
2024/01/02 08:00:04;;;;;;;3.15;1.05;;;;;;;6.36;66.97;94881.81;5027461;28;20025;-77
2024/01/02 08:02:31;;;;;;;1.17;0.70;;;;;;;6.36;66.89;94884.53;5025914;28;20112;-76
2024/01/02 08:04:56;;;;;;;1.33;0.60;;;;;;;6.32;67.22;94883.84;5026256;28;20447;-77
2024/01/02 08:07:21;;;;;;;1.02;0.60;;;;;;;6.37;66.69;94880.66;5026434;28;20029;-79
2024/01/02 08:09:47;;;;;;;0.60;0.50;;;;;;;6.40;66.09;94884.50;5026897;28;20403;-78
2024/01/02 08:12:12;;;;;;;0.52;0.40;;;;;;;6.38;66.33;94906.75;5027628;28;20051;-78
2024/01/02 08:14:38;;;;;;;1.73;0.60;;;;;;;6.42;66.02;94906.69;5024443;28;20429;-76
2024/01/02 08:17:04;;;;;;;1.88;0.77;;;;;;;6.45;66.01;94905.13;5027628;28;20053;-78
2024/01/02 08:19:30;;;;;;;2.58;1.00;;;;;;;6.47;65.42;94903.50;5025974;28;20433;-79
2024/01/02 08:21:55;;;;;;;1.92;0.80;;;;;;;6.50;65.46;94905.44;5027386;28;20109;-78
2024/01/02 08:24:21;;;;;;;1.60;0.57;;;;;;;6.45;65.73;94914.09;5024615;28;20017;-79
2024/01/02 08:26:46;;;;;;;2.05;0.82;;;;;;;6.46;65.87;94904.69;5027181;28;20040;-82
2024/01/02 08:29:11;;;;;;;2.10;0.70;;;;;;;6.51;65.54;94900.75;5027145;28;20484;-80
2024/01/02 08:31:37;;;;;;;0.50;0.38;;;;;;;6.53;64.47;94906.56;5025396;28;20498;-77
2024/01/02 08:34:04;;;;;;;2.47;0.75;;;;;;;6.55;64.72;94902.25;5027502;28;20020;-78
2024/01/02 08:36:29;;;;;;;1.02;0.52;;;;;;;6.55;64.23;94910.44;5025989;28;20025;-79
2024/01/02 08:38:54;;;;;;;0.90;0.57;;;;;;;6.52;64.62;94905.78;5027180;28;20028;-78
2024/01/02 08:41:20;;;;;;;1.60;0.80;;;;;;;6.57;64.93;94901.84;5025618;28;20349;-78
2024/01/02 08:43:46;;;;;;;1.40;0.70;;;;;;;6.57;65.14;94907.28;5027037;28;20025;-78
2024/01/02 08:46:11;;;;;;;0.75;0.40;;;;;;;6.54;63.51;94897.22;5026402;28;20060;-78
2024/01/02 08:48:37;;;;;;;1.83;0.40;;;;;;;6.62;63.49;94902.16;5026723;28;20064;-76
2024/01/02 08:51:02;;;;;;;1.52;0.63;;;;;;;6.62;64.04;94898.63;5026744;28;20053;-78
2024/01/02 08:53:28;;;;;;;0.88;0.60;;;;;;;6.66;63.90;94907.56;5025724;28;20091;-81
2024/01/02 08:55:54;;;;;;;1.52;0.70;;;;;;;6.72;64.08;94908.66;5026948;28;20030;-76
2024/01/02 08:58:19;;;;;;;1.92;0.60;;;;;;;6.81;64.65;94910.84;5025527;28;20076;-76
2024/01/02 09:00:44;;;;;;;2.53;0.70;;;;;;;6.97;64.21;94904.75;5027036;28;20013;-77
2024/01/02 09:03:10;;;;;;;3.10;1.38;;;;;;;7.06;63.97;94905.78;5025744;28;20563;-78
2024/01/02 09:05:35;;;;;;;3.40;1.88;;;;;;;7.45;63.84;94904.34;5026925;28;20041;-76
2024/01/02 09:08:01;;;;;;;1.65;1.30;;;;;;;7.46;63.00;94897.72;5026765;28;20021;-76
2024/01/02 09:10:26;;;;;;;5.00;1.25;;;;;;;7.47;62.79;94895.75;5025423;28;20068;-76
2024/01/02 09:12:52;;;;;;;4.50;1.80;;;;;;;7.51;62.75;94896.44;5027063;28;20029;-77
2024/01/02 09:15:17;;;;;;;8.25;2.88;;;;;;;7.57;61.86;94892.03;5007216;28;20029;-78
2024/01/02 09:17:42;;;;;;;7.50;2.20;;;;;;;7.55;62.31;94889.72;5026817;28;20037;-77
2024/01/02 09:20:09;;;;;;;4.30;1.75;;;;;;;7.62;61.63;94900.53;5028777;28;20496;-78
2024/01/02 09:22:35;;;;;;;5.95;1.88;;;;;;;7.58;61.17;94899.84;5030451;28;20021;-78
2024/01/02 09:25:04;;;;;;;2.90;1.30;;;;;;;7.44;60.90;94898.13;5029872;28;20489;-84
2024/01/02 09:27:30;;;;;;;1.95;1.10;;;;;;;7.43;61.53;94895.81;5029417;28;20025;-76
2024/01/02 09:29:58;;;;;;;5.70;1.75;;;;;;;7.44;61.15;94889.91;5028907;28;20033;-76
2024/01/02 09:32:24;;;;;;;2.55;1.40;;;;;;;7.40;61.12;94891.19;5027419;28;20018;-79
2024/01/02 09:34:49;;;;;;;3.13;1.45;;;;;;;7.42;61.19;94895.03;5028941;28;20040;-79
2024/01/02 09:37:14;;;;;;;4.18;2.00;;;;;;;7.38;61.14;94894.31;5028458;28;20033;-82
2024/01/02 09:39:40;;;;;;;5.30;2.17;;;;;;;7.39;61.52;94889.63;5030229;28;20036;-79
2024/01/02 09:42:41;;;;;;;4.63;2.17;;;;;;;7.43;61.30;94882.13;5028975;28;20025;-79
2024/01/02 09:45:07;;;;;;;5.00;2.30;;;;;;;7.47;61.27;94880.13;5027807;28;20021;-80
2024/01/02 09:47:45;;;;;;;4.65;1.92;;;;;;;7.52;61.57;94871.44;5028575;28;20026;-76
2024/01/02 09:50:17;;;;;;;6.63;3.28;;;;;;;7.45;61.42;94877.81;5028608;28;20037;-75
2024/01/02 09:52:52;;;;;;;3.28;1.67;;;;;;;7.46;61.53;94873.09;5028915;28;20120;-74
2024/01/02 09:55:24;;;;;;;6.22;2.80;;;;;;;7.51;61.68;94863.63;5028972;28;20484;-75
2024/01/02 09:57:56;;;;;;;5.88;2.35;;;;;;;7.55;61.61;94864.34;5029081;28;20109;-75
2024/01/02 10:00:57;;;;;;;4.63;2.60;;;;;;;7.51;61.71;94861.66;5028050;28;20400;-75
2024/01/02 10:03:28;;;;;;;6.10;2.30;;;;;;;7.53;61.80;94856.56;5027080;28;20076;-75
2024/01/02 10:06:15;;;;;;;6.15;3.08;;;;;;;7.65;62.26;94836.78;5029388;28;20097;-74
2024/01/02 10:08:59;;;;;;;8.65;3.92;;;;;;;7.89;61.78;94842.19;5028123;28;20030;-74
2024/01/02 10:11:46;;;;;;;4.72;2.55;;;;;;;8.19;61.00;94847.41;5027674;28;20029;-74
2024/01/02 10:14:31;;;;;;;5.40;2.03;;;;;;;8.33;60.58;94840.88;5029225;28;20026;-75
2024/01/02 10:17:17;;;;;;;2.28;1.10;;;;;;;8.43;60.37;94841.84;5027367;28;20194;-75
2024/01/02 10:20:07;;;;;;;6.25;3.30;;;;;;;8.65;59.88;94833.94;5026710;28;20091;-75
2024/01/02 10:22:43;;;;;;;9.30;3.33;;;;;;;8.98;59.18;94837.47;5029069;28;20067;-74
2024/01/02 10:25:13;;;;;;;5.55;2.60;;;;;;;9.28;58.02;94828.09;5028269;28;20028;-75
2024/01/02 10:28:07;;;;;;;6.90;2.95;;;;;;;9.55;57.46;94833.28;5029044;28;20056;-74
2024/01/02 10:30:38;;;;;;;4.78;1.83;;;;;;;9.83;56.89;94829.78;5028653;28;20073;-74
2024/01/02 10:33:28;;;;;;;3.63;2.05;;;;;;;10.05;56.22;94821.72;5026347;28;20041;-74
2024/01/02 10:35:54;;;;;;;2.33;1.00;;;;;;;10.13;56.37;94821.50;5028890;28;20467;-73
2024/01/02 10:38:22;;;;;;;2.20;1.25;;;;;;;10.32;55.94;94823.31;5027996;28;20503;-74
2024/01/02 10:40:59;;;;;;;3.78;1.50;;;;;;;10.27;56.50;94826.63;5028465;28;20026;-73
2024/01/02 10:43:29;;;;;;;2.65;1.75;;;;;;;10.29;55.87;94816.72;5027686;28;20033;-75
2024/01/02 10:46:04;;;;;;;4.97;2.70;;;;;;;10.40;55.72;94816.41;5027173;28;20034;-74
2024/01/02 10:48:53;;;;;;;3.65;1.55;;;;;;;10.41;55.54;94811.69;5026142;28;20041;-74
2024/01/02 10:51:38;;;;;;;2.85;1.85;;;;;;;10.45;55.31;94813.13;5027512;28;20033;-75
2024/01/02 10:54:07;;;;;;;2.53;1.27;;;;;;;10.55;54.92;94812.03;5027196;28;20029;-73
2024/01/02 10:56:46;;;;;;;3.28;1.23;;;;;;;10.61;54.65;94815.00;5028284;28;20026;-75
2024/01/02 10:59:30;;;;;;;3.17;1.55;;;;;;;10.73;54.45;94807.97;5025656;28;20033;-74
2024/01/02 11:02:14;;;;;;;;;;;;;;;10.86;54.46;94809.47;5028984;28;20037;-74
2024/01/02 11:05:12;;;;;;;2.80;1.52;;;;;;;11.05;54.49;94804.16;5028350;28;19952;-76
2024/01/02 11:07:41;;;;;;;4.32;1.88;;;;;;;11.21;53.92;94795.00;5025706;28;20087;-76
2024/01/02 11:10:09;;;;;;;5.68;2.97;;;;;;;11.43;52.94;94799.34;5027247;28;20057;-75
2024/01/02 11:13:01;;;;;;;2.97;1.40;;;;;;;11.38;52.63;94799.91;5034472;28;20029;-74
2024/01/02 11:15:28;;;;;;;4.80;1.90;;;;;;;11.21;53.28;94797.75;5037294;28;20195;-75
2024/01/02 11:17:55;;;;;;;2.70;1.52;;;;;;;11.20;53.39;94798.97;5038081;28;20059;-74
2024/01/02 11:20:44;;;;;;;4.07;2.30;;;;;;;11.34;53.09;94791.00;5026660;28;20052;-75
2024/01/02 11:23:13;;;;;;;3.05;1.90;;;;;;;11.37;53.03;94790.13;5035893;28;20048;-73
2024/01/02 11:25:51;;;;;;;4.40;2.03;;;;;;;11.61;52.52;94786.94;5025824;28;20033;-75
2024/01/02 11:28:17;;;;;;;5.10;2.60;;;;;;;12.38;50.60;94793.59;5024529;28;20109;-74
2024/01/02 11:30:43;;;;;;;2.47;1.52;;;;;;;15.98;42.74;94782.22;5025539;28;20029;-75
2024/01/02 11:33:39;;;;;;;2.90;1.55;;;;;;;17.22;40.49;94779.47;5024311;28;20033;-74
2024/01/02 11:36:25;;;;;;;3.45;1.85;;;;;;;17.44;40.02;94787.34;5027334;28;20522;-77
2024/01/02 11:39:09;;;;;;;3.95;2.15;;;;;;;19.05;36.55;94781.91;5027366;28;20411;-76
2024/01/02 11:41:46;;;;;;;;;;;;;;;17.63;38.97;94773.94;5025108;28;20124;-75
2024/01/02 11:44:34;;;;;;;5.40;2.75;;;;;;;19.83;34.90;94783.59;5028290;28;19935;-75